createdAt,value
2022-11-08T00:00:14.441Z,9.50
2022-11-08T00:02:41.370Z,9.40
2022-11-08T00:05:27.271Z,9.40
2022-11-08T00:08:12.877Z,9.30
2022-11-08T00:10:58.494Z,9.30
2022-11-08T00:13:44.001Z,9.30
2022-11-08T00:16:10.831Z,9.20
2022-11-08T00:18:37.630Z,9.20
2022-11-08T00:21:04.449Z,9.30
2022-11-08T00:23:31.295Z,9.20
2022-11-08T00:25:58.269Z,9.10
2022-11-08T00:28:25.072Z,9.20
2022-11-08T00:30:51.857Z,9.20
2022-11-08T00:33:18.662Z,9.10
2022-11-08T00:35:45.487Z,9.10
2022-11-08T00:38:12.320Z,9.10
2022-11-08T00:40:39.170Z,9.00
2022-11-08T00:43:05.958Z,9.00
2022-11-08T00:45:32.803Z,9.00
2022-11-08T00:47:59.590Z,9.00
2022-11-08T00:50:26.400Z,9.00
2022-11-08T00:52:53.211Z,9.00
2022-11-08T00:55:20.021Z,9.00
2022-11-08T00:57:59.097Z,9.00
2022-11-08T01:00:27.935Z,8.90
2022-11-08T01:03:13.457Z,8.90
2022-11-08T01:05:40.659Z,8.90
2022-11-08T01:08:08.289Z,8.90
2022-11-08T01:10:35.640Z,8.90
2022-11-08T01:13:03.030Z,8.90
2022-11-08T01:15:40.821Z,8.90
2022-11-08T01:18:10.489Z,8.90
2022-11-08T01:20:45.500Z,8.90
2022-11-08T01:23:13.885Z,8.90
2022-11-08T01:25:45.324Z,8.80
2022-11-08T01:28:13.654Z,8.80
2022-11-08T01:30:43.483Z,8.80
2022-11-08T01:33:11.768Z,8.90
2022-11-08T01:35:39.101Z,8.80
2022-11-08T01:38:06.993Z,8.80
2022-11-08T01:40:34.464Z,8.80
2022-11-08T01:43:48.374Z,8.80
2022-11-08T01:46:38.890Z,8.80
2022-11-08T01:49:32.647Z,8.80
2022-11-08T01:52:18.620Z,8.80
2022-11-08T01:55:00.284Z,8.80
2022-11-08T01:57:38.423Z,8.80
2022-11-08T02:00:10.327Z,8.80
2022-11-08T02:02:40.826Z,8.80
2022-11-08T02:05:24.891Z,9.00
2022-11-08T02:08:03.334Z,8.80
2022-11-08T02:10:36.610Z,8.80
2022-11-08T02:13:11.993Z,8.90
2022-11-08T02:15:41.867Z,8.70
2022-11-08T02:18:09.304Z,8.70
2022-11-08T02:20:36.547Z,8.60
2022-11-08T02:23:17.357Z,8.70
2022-11-08T02:25:44.310Z,8.70
2022-11-08T02:28:11.137Z,8.60
2022-11-08T02:30:38.825Z,8.60
2022-11-08T02:33:22.304Z,8.60
2022-11-08T02:35:54.787Z,8.60
2022-11-08T02:38:26.044Z,8.50
2022-11-08T02:40:56.066Z,8.50
2022-11-08T02:43:25.288Z,8.40
2022-11-08T02:45:53.179Z,8.40
2022-11-08T02:48:20.952Z,8.40
2022-11-08T02:50:48.049Z,8.40
2022-11-08T02:53:15.610Z,8.30
2022-11-08T02:55:43.081Z,8.30
2022-11-08T02:58:10.661Z,8.30
2022-11-08T03:00:38.192Z,8.20
2022-11-08T03:03:05.850Z,8.10
2022-11-08T03:05:33.482Z,8.20
2022-11-08T03:08:00.410Z,8.10
2022-11-08T03:10:28.255Z,8.10
2022-11-08T03:13:01.378Z,8.10
2022-11-08T03:15:29.492Z,8.00
2022-11-08T03:17:58.306Z,8.00
2022-11-08T03:20:29.787Z,8.00
2022-11-08T03:23:06.605Z,8.00
2022-11-08T03:25:34.172Z,7.90
2022-11-08T03:28:09.415Z,7.90
2022-11-08T03:30:37.118Z,7.80
2022-11-08T03:33:04.482Z,7.80
2022-11-08T03:35:31.921Z,7.80
2022-11-08T03:37:58.847Z,7.80
2022-11-08T03:40:26.631Z,7.80
2022-11-08T03:42:57.452Z,7.80
2022-11-08T03:45:24.423Z,7.70
2022-11-08T03:47:51.329Z,7.80
2022-11-08T03:50:18.264Z,7.70
2022-11-08T03:52:54.512Z,7.70
2022-11-08T03:55:24.847Z,7.80
2022-11-08T03:57:52.558Z,7.60
2022-11-08T04:00:24.489Z,7.60
2022-11-08T04:02:52.205Z,7.60
2022-11-08T04:05:19.375Z,7.60
2022-11-08T04:07:47.198Z,7.60
2022-11-08T04:10:14.664Z,7.60
2022-11-08T04:13:01.672Z,7.60
2022-11-08T04:15:30.817Z,7.60
2022-11-08T04:18:18.150Z,7.60
2022-11-08T04:21:06.303Z,7.60
2022-11-08T04:23:36.343Z,7.60
2022-11-08T04:26:07.785Z,7.60
2022-11-08T04:28:37.380Z,7.60
2022-11-08T04:31:08.521Z,7.60
2022-11-08T04:33:35.904Z,7.60
2022-11-08T04:36:10.066Z,7.70
2022-11-08T04:38:37.285Z,7.70
2022-11-08T04:41:10.790Z,7.80
2022-11-08T04:43:38.312Z,7.60
2022-11-08T04:46:12.396Z,7.60
2022-11-08T04:48:39.756Z,7.60
2022-11-08T04:51:29.499Z,7.50
2022-11-08T04:53:59.859Z,7.60
2022-11-08T04:56:30.330Z,7.50
2022-11-08T04:58:59.940Z,7.50
2022-11-08T05:01:30.478Z,7.50
2022-11-08T05:03:57.601Z,7.40
2022-11-08T05:06:31.343Z,7.50
2022-11-08T05:09:00.072Z,7.40
2022-11-08T05:11:30.096Z,7.40
2022-11-08T05:13:57.562Z,7.30
2022-11-08T05:16:29.178Z,7.30
2022-11-08T05:18:56.649Z,7.30
2022-11-08T05:21:43.755Z,7.30
2022-11-08T05:24:14.957Z,7.30
2022-11-08T05:26:44.756Z,7.20
2022-11-08T05:29:13.175Z,7.20
2022-11-08T05:31:40.405Z,7.20
2022-11-08T05:34:07.663Z,7.20
2022-11-08T05:36:34.879Z,7.20
2022-11-08T05:39:01.742Z,7.10
2022-11-08T05:41:28.614Z,7.10
2022-11-08T05:43:56.091Z,7.10
2022-11-08T05:46:24.201Z,7.10
2022-11-08T05:48:51.323Z,7.20
2022-11-08T05:51:19.829Z,7.10
2022-11-08T05:53:48.573Z,7.10
2022-11-08T05:56:16.626Z,7.10
2022-11-08T05:58:47.423Z,7.10
2022-11-08T06:01:17.301Z,7.10
2022-11-08T06:03:45.021Z,7.10
2022-11-08T06:06:18.617Z,7.10
2022-11-08T06:08:49.898Z,7.10
2022-11-08T06:11:22.471Z,7.00
2022-11-08T06:13:50.025Z,7.00
2022-11-08T06:16:19.306Z,7.00
2022-11-08T06:18:47.117Z,7.00
2022-11-08T06:21:18.349Z,7.00
2022-11-08T06:23:45.287Z,7.00
2022-11-08T06:26:17.490Z,7.10
2022-11-08T06:28:44.388Z,7.00
2022-11-08T06:31:11.270Z,7.10
2022-11-08T06:33:38.224Z,7.10
2022-11-08T06:36:07.254Z,7.10
2022-11-08T06:38:34.142Z,7.10
2022-11-08T06:41:02.311Z,7.10
2022-11-08T06:43:29.465Z,7.20
2022-11-08T06:46:01.515Z,7.20
2022-11-08T06:48:33.987Z,7.20
2022-11-08T06:51:02.299Z,7.40
2022-11-08T06:53:29.563Z,7.30
2022-11-08T06:55:58.554Z,7.40
2022-11-08T06:58:25.395Z,7.30
2022-11-08T07:00:52.198Z,7.40
2022-11-08T07:03:19.252Z,7.40
2022-11-08T07:05:46.335Z,7.50
2022-11-08T07:08:13.165Z,7.60
2022-11-08T07:10:40.691Z,7.60
2022-11-08T07:13:13.432Z,7.80
2022-11-08T07:15:42.150Z,7.80
2022-11-08T07:18:12.368Z,7.90
2022-11-08T07:20:40.650Z,7.90
2022-11-08T07:23:08.764Z,8.00
2022-11-08T07:25:36.723Z,8.10
2022-11-08T07:28:12.945Z,8.10
2022-11-08T07:30:39.822Z,8.20
2022-11-08T07:33:06.638Z,8.30
2022-11-08T07:35:33.633Z,8.30
2022-11-08T07:38:00.455Z,8.40
2022-11-08T07:40:27.479Z,8.50
2022-11-08T07:43:14.734Z,8.60
2022-11-08T07:45:42.563Z,8.70
2022-11-08T07:48:13.885Z,8.80
2022-11-08T07:50:46.155Z,8.90
2022-11-08T07:53:13.393Z,9.10
2022-11-08T07:55:41.378Z,9.30
2022-11-08T07:58:11.004Z,9.60
2022-11-08T08:00:40.499Z,10.00
2022-11-08T08:03:11.477Z,10.40
2022-11-08T08:05:42.554Z,11.00
2022-11-08T08:08:12.271Z,11.50
2022-11-08T08:10:40.618Z,12.10
2022-11-08T08:13:08.462Z,12.60
2022-11-08T08:15:35.747Z,13.10
2022-11-08T08:18:05.373Z,13.60
2022-11-08T08:20:33.538Z,14.10
2022-11-08T08:23:01.463Z,14.60
2022-11-08T08:25:30.929Z,15.00
2022-11-08T08:28:00.995Z,15.50
2022-11-08T08:30:29.931Z,15.90
2022-11-08T08:36:01.958Z,16.70
2022-11-08T08:38:30.498Z,17.20
2022-11-08T08:40:58.320Z,17.50
2022-11-08T08:43:27.509Z,17.90
2022-11-08T08:46:02.613Z,18.20
2022-11-08T08:48:30.412Z,18.50
2022-11-08T08:50:58.187Z,18.80
2022-11-08T08:53:26.310Z,19.10
2022-11-08T08:55:53.137Z,19.20
2022-11-08T08:58:21.239Z,19.30
2022-11-08T09:03:36.677Z,19.50
2022-11-08T09:06:04.492Z,19.50
2022-11-08T09:08:31.373Z,19.40
2022-11-08T09:11:01.171Z,19.30
2022-11-08T09:13:33.193Z,19.20
2022-11-08T09:16:04.252Z,19.10
2022-11-08T09:18:32.260Z,18.90
2022-11-08T09:20:59.837Z,18.90
2022-11-08T09:23:26.828Z,18.70
2022-11-08T09:26:05.049Z,18.60
2022-11-08T09:28:35.165Z,18.50
2022-11-08T09:31:11.667Z,18.30
2022-11-08T09:33:40.707Z,18.20
2022-11-08T09:36:11.549Z,18.10
2022-11-08T09:38:38.239Z,18.00
2022-11-08T09:41:25.583Z,18.00
2022-11-08T09:44:16.100Z,17.90
2022-11-08T09:46:55.604Z,17.90
2022-11-08T09:49:42.362Z,17.80
2022-11-08T09:52:21.414Z,17.90
2022-11-08T09:54:51.803Z,18.00
2022-11-08T09:57:29.032Z,18.00
2022-11-08T10:00:04.575Z,18.10
2022-11-08T10:02:33.368Z,18.30
2022-11-08T10:05:11.160Z,18.40
2022-11-08T10:07:50.222Z,18.60
2022-11-08T10:11:02.454Z,18.80
2022-11-08T10:14:03.878Z,19.00
2022-11-08T10:16:47.424Z,19.30
2022-11-08T10:19:44.389Z,19.70
2022-11-08T10:22:38.929Z,20.00
2022-11-08T10:25:24.057Z,20.30
2022-11-08T10:27:56.341Z,20.40
2022-11-08T10:30:33.488Z,20.30
2022-11-08T10:33:01.183Z,20.20
2022-11-08T10:38:31.161Z,19.80
2022-11-08T10:41:15.742Z,19.70
2022-11-08T10:43:52.012Z,19.50
2022-11-08T10:46:55.789Z,19.40
2022-11-08T10:49:34.610Z,19.30
2022-11-08T10:52:16.270Z,19.10
2022-11-08T10:54:55.409Z,19.00
2022-11-08T10:57:28.205Z,18.90
2022-11-08T10:59:57.104Z,18.90
2022-11-08T11:02:34.203Z,18.90
2022-11-08T11:05:16.466Z,18.80
2022-11-08T11:07:56.213Z,18.90
2022-11-08T11:10:38.000Z,18.90
2022-11-08T11:15:58.491Z,19.10
2022-11-08T11:18:34.390Z,19.20
2022-11-08T11:21:05.891Z,19.30
2022-11-08T11:23:59.977Z,19.40
2022-11-08T11:26:29.877Z,19.50
2022-11-08T11:29:05.585Z,19.70
2022-11-08T11:31:39.432Z,19.90
2022-11-08T11:34:18.442Z,20.10
2022-11-08T11:36:58.291Z,20.20
2022-11-08T11:39:31.927Z,20.40
2022-11-08T11:42:44.387Z,20.40
2022-11-08T11:45:27.846Z,20.40
2022-11-08T11:48:01.248Z,20.40
2022-11-08T11:50:40.194Z,20.30
2022-11-08T11:53:21.628Z,20.20
2022-11-08T11:56:25.619Z,20.00
2022-11-08T11:59:34.381Z,19.90
2022-11-08T12:02:37.760Z,19.70
2022-11-08T12:05:46.167Z,19.60
2022-11-08T12:08:44.087Z,19.40
2022-11-08T12:11:46.701Z,19.40
2022-11-08T12:14:58.815Z,19.20
2022-11-08T12:18:07.050Z,19.10
2022-11-08T12:21:08.638Z,19.10
2022-11-08T12:23:38.691Z,19.00
2022-11-08T12:26:30.820Z,19.00
2022-11-08T12:29:21.065Z,19.00
2022-11-08T12:32:04.451Z,18.90
2022-11-08T12:35:08.367Z,18.90
2022-11-08T12:38:29.233Z,18.80
2022-11-08T12:41:39.552Z,18.80
2022-11-08T12:44:29.268Z,18.80
2022-11-08T12:47:04.861Z,18.80
2022-11-08T12:49:50.052Z,18.90
2022-11-08T12:52:37.989Z,18.90
2022-11-08T12:55:22.604Z,18.90
2022-11-08T12:57:53.457Z,19.10
2022-11-08T13:00:21.129Z,19.20
2022-11-08T13:03:38.396Z,19.30
2022-11-08T13:06:41.880Z,19.50
2022-11-08T13:09:27.920Z,19.70
2022-11-08T13:12:10.375Z,19.80
2022-11-08T13:14:41.276Z,19.90
2022-11-08T13:17:16.431Z,20.00
2022-11-08T13:19:51.756Z,20.10
2022-11-08T13:22:40.261Z,20.20
2022-11-08T13:25:13.226Z,20.30
2022-11-08T13:27:45.296Z,20.50
2022-11-08T13:30:12.036Z,20.60
2022-11-08T13:33:14.081Z,20.80
2022-11-08T13:36:02.047Z,21.10
2022-11-08T13:39:22.416Z,21.30
2022-11-08T13:42:21.555Z,21.40
2022-11-08T13:45:00.344Z,21.50
2022-11-08T13:47:33.035Z,21.50
2022-11-08T13:50:32.023Z,21.50
2022-11-08T13:53:44.891Z,21.40
2022-11-08T13:56:11.621Z,21.40
2022-11-08T13:58:44.696Z,21.30
2022-11-08T14:01:23.625Z,21.10
2022-11-08T14:03:50.473Z,21.10
2022-11-08T14:06:46.518Z,21.00
2022-11-08T14:09:33.218Z,21.00
2022-11-08T14:12:30.768Z,20.90
2022-11-08T14:15:46.552Z,20.90
2022-11-08T14:18:20.852Z,20.90
2022-11-08T14:20:48.360Z,20.80
2022-11-08T14:23:27.875Z,20.80
2022-11-08T14:26:05.870Z,20.70
2022-11-08T14:28:37.088Z,20.50
2022-11-08T14:31:21.780Z,20.40
2022-11-08T14:33:49.328Z,20.30
2022-11-08T14:36:19.654Z,20.10
2022-11-08T14:39:01.611Z,19.90
2022-11-08T14:41:31.686Z,19.80
2022-11-08T14:44:01.803Z,19.70
2022-11-08T14:46:32.537Z,19.50
2022-11-08T14:49:09.445Z,19.40
2022-11-08T14:51:36.801Z,19.40
2022-11-08T14:54:03.952Z,19.20
2022-11-08T14:56:38.750Z,19.00
2022-11-08T14:59:07.105Z,18.90
2022-11-08T15:01:35.942Z,18.80
2022-11-08T15:04:25.966Z,18.70
2022-11-08T15:06:57.798Z,18.60
2022-11-08T15:09:36.003Z,18.50
2022-11-08T15:12:16.376Z,18.30
2022-11-08T15:15:00.577Z,18.20
2022-11-08T15:17:39.673Z,18.00
2022-11-08T15:20:13.070Z,17.90
2022-11-08T15:22:40.402Z,17.80
2022-11-08T15:25:27.966Z,17.70
2022-11-08T15:27:57.951Z,17.60
2022-11-08T15:30:30.896Z,17.40
2022-11-08T15:32:58.079Z,17.30
2022-11-08T15:35:34.924Z,17.20
2022-11-08T15:38:05.425Z,17.10
2022-11-08T15:40:36.025Z,16.90
2022-11-08T15:43:03.916Z,16.80
2022-11-08T15:45:35.179Z,16.70
2022-11-08T15:48:22.431Z,16.60
2022-11-08T15:50:50.404Z,16.40
2022-11-08T15:53:17.442Z,16.30
2022-11-08T15:56:02.279Z,16.10
2022-11-08T15:58:33.621Z,16.00
2022-11-08T16:01:02.893Z,15.80
2022-11-08T16:03:31.127Z,15.60
2022-11-08T16:05:58.093Z,15.50
2022-11-08T16:08:25.241Z,15.40
2022-11-08T16:10:57.620Z,15.30
2022-11-08T16:13:29.022Z,15.20
2022-11-08T16:15:58.470Z,15.10
2022-11-08T16:18:25.873Z,15.00
2022-11-08T16:20:52.795Z,14.90
2022-11-08T16:23:19.630Z,14.90
2022-11-08T16:25:55.960Z,14.80
2022-11-08T16:28:28.219Z,14.70
2022-11-08T16:30:56.086Z,14.60
2022-11-08T16:33:26.493Z,14.50
2022-11-08T16:36:00.289Z,14.40
2022-11-08T16:38:36.563Z,14.30
2022-11-08T16:41:05.024Z,14.30
2022-11-08T16:43:32.507Z,14.20
2022-11-08T16:46:07.006Z,14.20
2022-11-08T16:48:38.498Z,14.10
2022-11-08T16:51:17.872Z,14.10
2022-11-08T16:53:45.524Z,14.00
2022-11-08T16:56:12.599Z,14.00
2022-11-08T16:58:39.532Z,13.90
2022-11-08T17:01:11.713Z,13.80
2022-11-08T17:03:38.614Z,13.80
2022-11-08T17:06:05.935Z,13.80
2022-11-08T17:08:32.940Z,13.70
2022-11-08T17:11:00.778Z,13.60
2022-11-08T17:13:27.555Z,13.60
2022-11-08T17:15:55.344Z,13.50
2022-11-08T17:18:22.359Z,13.50
2022-11-08T17:20:49.420Z,13.50
2022-11-08T17:23:16.501Z,13.40
2022-11-08T17:25:44.518Z,13.40
2022-11-08T17:28:13.106Z,13.40
2022-11-08T17:30:44.237Z,13.40
2022-11-08T17:33:13.043Z,13.30
2022-11-08T17:35:44.088Z,13.30
2022-11-08T17:38:12.691Z,13.20
2022-11-08T17:40:42.098Z,13.20
2022-11-08T17:43:09.099Z,13.10
2022-11-08T17:45:36.081Z,13.10
2022-11-08T17:48:02.868Z,13.10
2022-11-08T17:50:29.660Z,13.10
2022-11-08T17:52:56.594Z,13.10
2022-11-08T17:55:23.423Z,13.00
2022-11-08T17:57:50.212Z,13.00
2022-11-08T18:00:17.382Z,13.00
2022-11-08T18:02:45.594Z,12.90
2022-11-08T18:05:12.401Z,12.90
2022-11-08T18:07:39.981Z,12.90
2022-11-08T18:10:07.991Z,12.90
2022-11-08T18:12:35.497Z,12.80
2022-11-08T18:15:03.929Z,12.80
2022-11-08T18:17:30.769Z,12.70
2022-11-08T18:19:57.640Z,12.80
2022-11-08T18:22:24.589Z,12.80
2022-11-08T18:24:51.529Z,12.70
2022-11-08T18:27:18.618Z,12.70
2022-11-08T18:29:45.436Z,12.70
2022-11-08T18:32:12.355Z,12.70
2022-11-08T18:34:39.228Z,12.70
2022-11-08T18:37:06.110Z,12.70
2022-11-08T18:39:32.990Z,12.70
2022-11-08T18:41:59.990Z,12.70
2022-11-08T18:44:26.911Z,12.70
2022-11-08T18:46:53.822Z,12.70
2022-11-08T18:49:20.660Z,12.70
2022-11-08T18:51:52.053Z,12.70
2022-11-08T18:54:19.900Z,12.70
2022-11-08T18:56:46.688Z,12.70
2022-11-08T18:59:14.187Z,12.70
2022-11-08T19:01:41.174Z,12.70
2022-11-08T19:04:08.145Z,12.70
2022-11-08T19:06:35.212Z,12.70
2022-11-08T19:09:02.297Z,12.70
2022-11-08T19:11:30.523Z,12.80
2022-11-08T19:13:58.753Z,12.80
2022-11-08T19:16:25.756Z,12.80
2022-11-08T19:18:52.822Z,12.80
2022-11-08T19:21:25.703Z,12.80
2022-11-08T19:23:58.845Z,12.90
2022-11-08T19:26:29.034Z,12.90
2022-11-08T19:28:57.331Z,12.90
2022-11-08T19:31:25.376Z,12.90
2022-11-08T19:33:54.369Z,12.90
2022-11-08T19:36:27.967Z,12.90
2022-11-08T19:38:57.781Z,12.90
2022-11-08T19:41:28.145Z,12.90
2022-11-08T19:43:55.401Z,12.90
2022-11-08T19:46:29.123Z,12.90
2022-11-08T19:48:57.347Z,12.80
2022-11-08T19:51:28.592Z,12.90
2022-11-08T19:54:02.518Z,12.90
2022-11-08T19:56:57.676Z,12.80
2022-11-08T19:59:17.323Z,12.90
2022-11-08T20:01:44.590Z,12.90
2022-11-08T20:04:13.866Z,12.90
2022-11-08T20:06:41.046Z,12.90
2022-11-08T20:09:09.555Z,12.80
2022-11-08T20:11:40.414Z,12.80
2022-11-08T20:14:08.272Z,12.80
2022-11-08T20:16:40.891Z,12.80
2022-11-08T20:19:14.974Z,12.90
2022-11-08T20:21:45.829Z,12.80
2022-11-08T20:24:13.453Z,12.80
2022-11-08T20:26:41.453Z,12.80
2022-11-08T20:29:09.519Z,12.80
2022-11-08T20:31:37.203Z,12.80
2022-11-08T20:34:07.385Z,12.70
2022-11-08T20:36:37.422Z,12.80
2022-11-08T20:39:07.724Z,12.70
2022-11-08T20:41:37.456Z,12.70
2022-11-08T20:44:06.360Z,12.70
2022-11-08T20:46:34.638Z,12.70
2022-11-08T20:49:02.392Z,12.70
2022-11-08T20:51:31.276Z,12.70
2022-11-08T20:54:00.399Z,12.70
2022-11-08T20:56:29.272Z,12.60
2022-11-08T20:58:56.924Z,12.70
2022-11-08T21:01:28.092Z,12.60
2022-11-08T21:03:55.772Z,12.60
2022-11-08T21:06:26.058Z,12.60
2022-11-08T21:08:59.842Z,12.50
2022-11-08T21:11:30.723Z,12.50
2022-11-08T21:13:58.057Z,12.50
2022-11-08T21:16:47.078Z,12.40
2022-11-08T21:19:12.219Z,12.40
2022-11-08T21:21:39.078Z,12.30
2022-11-08T21:24:06.602Z,12.30
2022-11-08T21:26:36.859Z,12.30
2022-11-08T21:29:07.588Z,12.20
2022-11-08T21:31:34.568Z,12.20
2022-11-08T21:34:01.344Z,12.10
2022-11-08T21:36:29.183Z,12.20
2022-11-08T21:38:56.272Z,12.10
2022-11-08T21:41:23.168Z,12.00
2022-11-08T21:43:49.953Z,12.00
2022-11-08T21:46:27.244Z,12.00
2022-11-08T21:48:59.556Z,12.00
2022-11-08T21:51:29.329Z,11.90
2022-11-08T21:53:58.872Z,11.90
2022-11-08T21:56:30.659Z,11.90
2022-11-08T21:58:58.195Z,11.80
2022-11-08T22:01:29.818Z,11.80
2022-11-08T22:03:58.902Z,11.70
2022-11-08T22:06:26.494Z,11.70
2022-11-08T22:08:53.673Z,11.60
2022-11-08T22:11:20.487Z,11.60
2022-11-08T22:13:47.287Z,11.60
2022-11-08T22:16:14.179Z,11.60
2022-11-08T22:21:41.407Z,11.60
2022-11-08T22:24:13.093Z,11.50
2022-11-08T22:26:41.582Z,11.50
2022-11-08T22:29:09.579Z,11.40
2022-11-08T22:31:37.294Z,11.50
2022-11-08T22:34:06.274Z,11.40
2022-11-08T22:36:33.185Z,11.40
2022-11-08T22:39:00.417Z,11.40
2022-11-08T22:41:27.683Z,11.30
2022-11-08T22:43:54.929Z,11.30
2022-11-08T22:46:22.143Z,11.30
2022-11-08T22:48:49.125Z,11.30
2022-11-08T22:51:16.472Z,11.20
2022-11-08T22:53:43.355Z,11.20
2022-11-08T22:56:11.738Z,11.20
2022-11-08T22:58:39.901Z,11.20
2022-11-08T23:01:12.961Z,11.10
2022-11-08T23:03:40.108Z,11.10
2022-11-08T23:06:06.952Z,11.10
2022-11-08T23:08:33.980Z,11.00
2022-11-08T23:11:20.330Z,11.00
2022-11-08T23:14:06.717Z,11.00
2022-11-08T23:16:37.745Z,10.90
2022-11-08T23:19:30.547Z,10.90
2022-11-08T23:22:16.589Z,10.90
2022-11-08T23:24:43.654Z,10.80
2022-11-08T23:27:32.263Z,10.80
2022-11-08T23:30:17.707Z,10.80
2022-11-08T23:32:48.603Z,10.80
2022-11-08T23:35:16.383Z,10.80
2022-11-08T23:37:44.200Z,10.80
2022-11-08T23:40:32.850Z,10.70
2022-11-08T23:43:44.102Z,10.70
2022-11-08T23:46:12.929Z,10.60
2022-11-08T23:48:40.868Z,10.60
2022-11-08T23:51:08.337Z,10.60
2022-11-08T23:53:37.489Z,10.60
2022-11-08T23:56:05.463Z,10.60
2022-11-08T23:58:33.050Z,10.50
